sensor_id;sensor_type;location;lat;lon;timestamp;temperature;humidity
1461;DHT22;724;49.910;12.530;2023-02-28T00:01:14;-4.50;99.90
1461;DHT22;724;49.910;12.530;2023-02-28T00:03:41;-4.50;99.90
1461;DHT22;724;49.910;12.530;2023-02-28T00:06:08;-4.50;99.90
1461;DHT22;724;49.910;12.530;2023-02-28T00:08:36;-4.50;99.90
1461;DHT22;724;49.910;12.530;2023-02-28T00:11:03;-4.60;99.90
1461;DHT22;724;49.910;12.530;2023-02-28T00:13:32;-4.60;99.90
1461;DHT22;724;49.910;12.530;2023-02-28T00:16:00;-4.60;99.90
1461;DHT22;724;49.910;12.530;2023-02-28T00:18:27;-4.50;99.90
1461;DHT22;724;49.910;12.530;2023-02-28T00:20:54;-4.60;99.90
1461;DHT22;724;49.910;12.530;2023-02-28T00:23:21;-4.60;99.90
1461;DHT22;724;49.910;12.530;2023-02-28T00:25:48;-4.70;99.90
1461;DHT22;724;49.910;12.530;2023-02-28T00:28:14;-4.60;99.90
1461;DHT22;724;49.910;12.530;2023-02-28T00:30:43;-4.60;99.90
1461;DHT22;724;49.910;12.530;2023-02-28T00:33:09;-4.60;99.90
1461;DHT22;724;49.910;12.530;2023-02-28T00:35:36;-4.70;1.00
1461;DHT22;724;49.910;12.530;2023-02-28T00:38:03;-4.60;1.00
1461;DHT22;724;49.910;12.530;2023-02-28T00:40:30;-4.70;1.00
1461;DHT22;724;49.910;12.530;2023-02-28T00:42:57;-4.60;1.00
1461;DHT22;724;49.910;12.530;2023-02-28T00:45:23;-4.60;1.00
1461;DHT22;724;49.910;12.530;2023-02-28T00:47:51;-4.70;1.00
1461;DHT22;724;49.910;12.530;2023-02-28T00:50:18;-4.70;1.00
1461;DHT22;724;49.910;12.530;2023-02-28T00:52:45;-4.70;1.00
1461;DHT22;724;49.910;12.530;2023-02-28T00:55:12;-4.60;1.00
1461;DHT22;724;49.910;12.530;2023-02-28T00:57:39;-4.70;1.00
1461;DHT22;724;49.910;12.530;2023-02-28T01:00:07;-4.80;1.00
1461;DHT22;724;49.910;12.530;2023-02-28T01:02:34;-4.80;1.00
1461;DHT22;724;49.910;12.530;2023-02-28T01:05:03;-4.80;1.00
1461;DHT22;724;49.910;12.530;2023-02-28T01:07:30;-4.80;1.00
1461;DHT22;724;49.910;12.530;2023-02-28T01:09:57;-4.80;1.00
1461;DHT22;724;49.910;12.530;2023-02-28T01:12:24;-4.80;1.00
1461;DHT22;724;49.910;12.530;2023-02-28T01:14:51;-4.80;1.00
1461;DHT22;724;49.910;12.530;2023-02-28T01:17:17;-4.80;1.00
1461;DHT22;724;49.910;12.530;2023-02-28T01:19:44;-4.90;1.00
1461;DHT22;724;49.910;12.530;2023-02-28T01:22:12;-4.90;1.00
1461;DHT22;724;49.910;12.530;2023-02-28T01:24:39;-4.90;1.00
1461;DHT22;724;49.910;12.530;2023-02-28T01:27:06;-4.90;1.00
1461;DHT22;724;49.910;12.530;2023-02-28T01:29:32;-5.00;1.00
1461;DHT22;724;49.910;12.530;2023-02-28T01:31:59;-5.00;1.00
1461;DHT22;724;49.910;12.530;2023-02-28T01:34:26;-5.10;1.00
1461;DHT22;724;49.910;12.530;2023-02-28T01:36:53;-5.00;1.00
1461;DHT22;724;49.910;12.530;2023-02-28T01:39:21;-5.10;1.00
1461;DHT22;724;49.910;12.530;2023-02-28T01:41:48;-5.10;1.00
1461;DHT22;724;49.910;12.530;2023-02-28T01:47:19;-5.20;1.00
1461;DHT22;724;49.910;12.530;2023-02-28T01:49:47;-5.20;1.00
1461;DHT22;724;49.910;12.530;2023-02-28T01:52:15;-5.10;1.00
1461;DHT22;724;49.910;12.530;2023-02-28T01:54:51;-5.10;1.00
1461;DHT22;724;49.910;12.530;2023-02-28T01:57:20;-5.10;1.00
1461;DHT22;724;49.910;12.530;2023-02-28T01:59:52;-5.10;1.00
1461;DHT22;724;49.910;12.530;2023-02-28T02:02:21;-5.10;1.00
1461;DHT22;724;49.910;12.530;2023-02-28T02:04:53;-5.10;1.00
1461;DHT22;724;49.910;12.530;2023-02-28T02:07:21;-5.10;1.00
1461;DHT22;724;49.910;12.530;2023-02-28T02:09:59;-5.10;1.00
1461;DHT22;724;49.910;12.530;2023-02-28T02:12:37;-5.00;1.00
1461;DHT22;724;49.910;12.530;2023-02-28T02:15:12;-5.00;1.00
1461;DHT22;724;49.910;12.530;2023-02-28T02:17:45;-5.00;1.00
1461;DHT22;724;49.910;12.530;2023-02-28T02:23:38;-5.00;1.00
1461;DHT22;724;49.910;12.530;2023-02-28T02:26:34;-5.00;1.00
1461;DHT22;724;49.910;12.530;2023-02-28T02:29:27;-5.00;1.00
1461;DHT22;724;49.910;12.530;2023-02-28T02:32:17;-5.10;1.00
1461;DHT22;724;49.910;12.530;2023-02-28T02:34:54;-5.00;1.00
1461;DHT22;724;49.910;12.530;2023-02-28T02:37:30;-5.00;1.00
1461;DHT22;724;49.910;12.530;2023-02-28T02:40:08;-5.00;1.00
1461;DHT22;724;49.910;12.530;2023-02-28T02:42:42;-5.00;1.00
1461;DHT22;724;49.910;12.530;2023-02-28T02:45:14;-5.00;1.00
1461;DHT22;724;49.910;12.530;2023-02-28T02:47:43;-5.00;1.00
1461;DHT22;724;49.910;12.530;2023-02-28T02:50:15;-5.00;1.00
1461;DHT22;724;49.910;12.530;2023-02-28T02:52:49;-5.00;1.00
1461;DHT22;724;49.910;12.530;2023-02-28T02:55:18;-4.90;1.00
1461;DHT22;724;49.910;12.530;2023-02-28T02:57:48;-4.80;1.00
1461;DHT22;724;49.910;12.530;2023-02-28T03:00:18;-4.80;1.00
1461;DHT22;724;49.910;12.530;2023-02-28T03:02:48;-4.80;1.00
1461;DHT22;724;49.910;12.530;2023-02-28T03:05:19;-4.80;1.00
1461;DHT22;724;49.910;12.530;2023-02-28T03:07:48;-4.80;1.00
1461;DHT22;724;49.910;12.530;2023-02-28T03:10:34;-4.80;1.00
1461;DHT22;724;49.910;12.530;2023-02-28T03:16:07;-4.80;1.00
1461;DHT22;724;49.910;12.530;2023-02-28T03:18:43;-4.80;1.00
1461;DHT22;724;49.910;12.530;2023-02-28T03:21:22;-4.70;1.00
1461;DHT22;724;49.910;12.530;2023-02-28T03:23:56;-4.60;1.00
1461;DHT22;724;49.910;12.530;2023-02-28T03:26:27;-4.60;1.00
1461;DHT22;724;49.910;12.530;2023-02-28T03:29:02;-4.60;1.00
1461;DHT22;724;49.910;12.530;2023-02-28T03:31:32;-4.60;1.00
1461;DHT22;724;49.910;12.530;2023-02-28T03:34:03;-4.60;1.00
1461;DHT22;724;49.910;12.530;2023-02-28T03:36:35;-4.60;1.00
1461;DHT22;724;49.910;12.530;2023-02-28T03:39:11;-4.50;1.00
1461;DHT22;724;49.910;12.530;2023-02-28T03:41:42;-4.50;1.00
1461;DHT22;724;49.910;12.530;2023-02-28T03:44:16;-4.50;1.00
1461;DHT22;724;49.910;12.530;2023-02-28T03:46:48;-4.40;1.00
1461;DHT22;724;49.910;12.530;2023-02-28T03:49:19;-4.50;1.00
1461;DHT22;724;49.910;12.530;2023-02-28T03:51:49;-4.50;1.00
1461;DHT22;724;49.910;12.530;2023-02-28T03:54:19;-4.50;1.00
1461;DHT22;724;49.910;12.530;2023-02-28T03:56:51;-4.40;1.00
1461;DHT22;724;49.910;12.530;2023-02-28T03:59:23;-4.40;1.00
1461;DHT22;724;49.910;12.530;2023-02-28T04:01:52;-4.40;1.00
1461;DHT22;724;49.910;12.530;2023-02-28T04:04:20;-4.40;1.00
1461;DHT22;724;49.910;12.530;2023-02-28T04:06:51;-4.40;1.00
1461;DHT22;724;49.910;12.530;2023-02-28T04:09:19;-4.40;1.00
1461;DHT22;724;49.910;12.530;2023-02-28T04:11:49;-4.40;1.00
1461;DHT22;724;49.910;12.530;2023-02-28T04:14:17;-4.40;1.00
1461;DHT22;724;49.910;12.530;2023-02-28T04:16:44;-4.40;1.00
1461;DHT22;724;49.910;12.530;2023-02-28T04:19:13;-4.40;1.00
1461;DHT22;724;49.910;12.530;2023-02-28T04:21:42;-4.40;1.00
1461;DHT22;724;49.910;12.530;2023-02-28T04:24:12;-4.40;1.00
1461;DHT22;724;49.910;12.530;2023-02-28T04:26:41;-4.40;1.00
1461;DHT22;724;49.910;12.530;2023-02-28T04:29:10;-4.40;1.00
1461;DHT22;724;49.910;12.530;2023-02-28T04:31:37;-4.40;1.00
1461;DHT22;724;49.910;12.530;2023-02-28T04:34:04;-4.40;1.00
1461;DHT22;724;49.910;12.530;2023-02-28T04:36:31;-4.40;1.00
1461;DHT22;724;49.910;12.530;2023-02-28T04:38:58;-4.40;1.00
1461;DHT22;724;49.910;12.530;2023-02-28T04:41:26;-4.40;1.00
1461;DHT22;724;49.910;12.530;2023-02-28T04:43:53;-4.40;1.00
1461;DHT22;724;49.910;12.530;2023-02-28T04:46:21;-4.40;1.00
1461;DHT22;724;49.910;12.530;2023-02-28T04:48:48;-4.40;1.00
1461;DHT22;724;49.910;12.530;2023-02-28T04:51:17;-4.40;1.00
1461;DHT22;724;49.910;12.530;2023-02-28T04:53:44;-4.40;1.00
1461;DHT22;724;49.910;12.530;2023-02-28T04:56:12;-4.40;1.00
1461;DHT22;724;49.910;12.530;2023-02-28T04:58:41;-4.40;1.00
1461;DHT22;724;49.910;12.530;2023-02-28T05:01:17;-4.40;1.00
1461;DHT22;724;49.910;12.530;2023-02-28T05:03:44;-4.40;1.00
1461;DHT22;724;49.910;12.530;2023-02-28T05:06:12;-4.40;1.00
1461;DHT22;724;49.910;12.530;2023-02-28T05:08:39;-4.40;1.00
1461;DHT22;724;49.910;12.530;2023-02-28T05:11:07;-4.40;1.00
1461;DHT22;724;49.910;12.530;2023-02-28T05:13:35;-4.40;1.00
1461;DHT22;724;49.910;12.530;2023-02-28T05:16:04;-4.40;1.00
1461;DHT22;724;49.910;12.530;2023-02-28T05:18:30;-4.30;1.00
1461;DHT22;724;49.910;12.530;2023-02-28T05:20:57;-4.30;1.00
1461;DHT22;724;49.910;12.530;2023-02-28T05:23:24;-4.30;1.00
1461;DHT22;724;49.910;12.530;2023-02-28T05:25:51;-4.30;1.00
1461;DHT22;724;49.910;12.530;2023-02-28T05:28:18;-4.30;1.00
1461;DHT22;724;49.910;12.530;2023-02-28T05:30:45;-4.30;1.00
1461;DHT22;724;49.910;12.530;2023-02-28T05:33:15;-4.30;1.00
1461;DHT22;724;49.910;12.530;2023-02-28T05:35:42;-4.30;1.00
1461;DHT22;724;49.910;12.530;2023-02-28T05:38:09;-4.30;1.00
1461;DHT22;724;49.910;12.530;2023-02-28T05:40:38;-4.20;1.00
1461;DHT22;724;49.910;12.530;2023-02-28T05:43:10;-4.20;1.00
1461;DHT22;724;49.910;12.530;2023-02-28T05:45:37;-4.20;1.00
1461;DHT22;724;49.910;12.530;2023-02-28T05:48:04;-4.20;1.00
1461;DHT22;724;49.910;12.530;2023-02-28T05:50:32;-4.20;1.00
1461;DHT22;724;49.910;12.530;2023-02-28T05:52:59;-4.20;1.00
1461;DHT22;724;49.910;12.530;2023-02-28T05:55:26;-4.10;1.00
1461;DHT22;724;49.910;12.530;2023-02-28T05:57:53;-4.10;1.00
1461;DHT22;724;49.910;12.530;2023-02-28T06:00:20;-4.10;1.00
1461;DHT22;724;49.910;12.530;2023-02-28T06:02:46;-4.10;1.00
1461;DHT22;724;49.910;12.530;2023-02-28T06:05:15;-4.10;1.00
1461;DHT22;724;49.910;12.530;2023-02-28T06:07:44;-4.10;1.00
1461;DHT22;724;49.910;12.530;2023-02-28T06:10:11;-4.10;1.00
1461;DHT22;724;49.910;12.530;2023-02-28T06:12:39;-4.10;1.00
1461;DHT22;724;49.910;12.530;2023-02-28T06:15:07;-4.10;1.00
1461;DHT22;724;49.910;12.530;2023-02-28T06:17:37;-4.00;1.00
1461;DHT22;724;49.910;12.530;2023-02-28T06:20:05;-4.00;1.00
1461;DHT22;724;49.910;12.530;2023-02-28T06:22:32;-4.00;1.00
1461;DHT22;724;49.910;12.530;2023-02-28T06:25:00;-4.10;1.00
1461;DHT22;724;49.910;12.530;2023-02-28T06:27:27;-4.00;1.00
1461;DHT22;724;49.910;12.530;2023-02-28T06:29:54;-4.00;1.00
1461;DHT22;724;49.910;12.530;2023-02-28T06:32:21;-4.00;1.00
1461;DHT22;724;49.910;12.530;2023-02-28T06:34:48;-4.00;1.00
1461;DHT22;724;49.910;12.530;2023-02-28T06:37:16;-3.90;1.00
1461;DHT22;724;49.910;12.530;2023-02-28T06:39:43;-3.90;1.00
1461;DHT22;724;49.910;12.530;2023-02-28T06:42:11;-3.90;1.00
1461;DHT22;724;49.910;12.530;2023-02-28T06:44:38;-3.90;1.00
1461;DHT22;724;49.910;12.530;2023-02-28T06:47:07;-3.80;1.00
1461;DHT22;724;49.910;12.530;2023-02-28T06:49:35;-3.90;1.00
1461;DHT22;724;49.910;12.530;2023-02-28T06:52:02;-3.80;1.00
1461;DHT22;724;49.910;12.530;2023-02-28T06:54:29;-3.80;1.00
1461;DHT22;724;49.910;12.530;2023-02-28T06:56:57;-3.80;1.00
1461;DHT22;724;49.910;12.530;2023-02-28T06:59:25;-3.70;99.90
1461;DHT22;724;49.910;12.530;2023-02-28T07:01:52;-3.70;99.90
1461;DHT22;724;49.910;12.530;2023-02-28T07:04:20;-3.70;99.90
1461;DHT22;724;49.910;12.530;2023-02-28T07:06:47;-3.60;99.90
1461;DHT22;724;49.910;12.530;2023-02-28T07:09:14;-3.50;99.90
1461;DHT22;724;49.910;12.530;2023-02-28T07:11:41;-3.60;99.90
1461;DHT22;724;49.910;12.530;2023-02-28T07:14:08;-3.50;99.90
1461;DHT22;724;49.910;12.530;2023-02-28T07:16:36;-3.50;99.90
1461;DHT22;724;49.910;12.530;2023-02-28T07:19:03;-2.30;99.90
1461;DHT22;724;49.910;12.530;2023-02-28T07:21:30;0.70;93.70
1461;DHT22;724;49.910;12.530;2023-02-28T07:23:57;1.80;1.00
1461;DHT22;724;49.910;12.530;2023-02-28T07:26:23;0.20;1.00
1461;DHT22;724;49.910;12.530;2023-02-28T07:28:50;-0.50;1.00
1461;DHT22;724;49.910;12.530;2023-02-28T07:31:18;-1.50;1.00
1461;DHT22;724;49.910;12.530;2023-02-28T07:33:46;-1.20;1.00
1461;DHT22;724;49.910;12.530;2023-02-28T07:36:15;-2.00;1.00
1461;DHT22;724;49.910;12.530;2023-02-28T07:38:44;-2.00;1.00
1461;DHT22;724;49.910;12.530;2023-02-28T07:41:12;-1.90;1.00
1461;DHT22;724;49.910;12.530;2023-02-28T07:43:39;-2.20;1.00
1461;DHT22;724;49.910;12.530;2023-02-28T07:46:07;-1.90;1.00
1461;DHT22;724;49.910;12.530;2023-02-28T07:48:34;-2.50;1.00
1461;DHT22;724;49.910;12.530;2023-02-28T07:51:03;-2.00;1.00
1461;DHT22;724;49.910;12.530;2023-02-28T07:53:30;-1.90;1.00
1461;DHT22;724;49.910;12.530;2023-02-28T07:55:57;-2.00;1.00
1461;DHT22;724;49.910;12.530;2023-02-28T07:58:24;-0.90;1.00
1461;DHT22;724;49.910;12.530;2023-02-28T08:00:51;-0.40;1.00
1461;DHT22;724;49.910;12.530;2023-02-28T08:03:19;2.10;1.00
1461;DHT22;724;49.910;12.530;2023-02-28T08:05:46;-0.20;1.00
1461;DHT22;724;49.910;12.530;2023-02-28T08:08:15;-1.60;1.00
1461;DHT22;724;49.910;12.530;2023-02-28T08:10:42;-1.90;1.00
1461;DHT22;724;49.910;12.530;2023-02-28T08:13:09;-2.20;1.00
1461;DHT22;724;49.910;12.530;2023-02-28T08:15:35;-2.60;1.00
1461;DHT22;724;49.910;12.530;2023-02-28T08:18:02;-2.50;1.00
1461;DHT22;724;49.910;12.530;2023-02-28T08:20:29;-2.40;1.00
1461;DHT22;724;49.910;12.530;2023-02-28T08:22:56;-2.10;1.00
1461;DHT22;724;49.910;12.530;2023-02-28T08:25:24;-2.40;1.00
1461;DHT22;724;49.910;12.530;2023-02-28T08:27:51;-2.10;1.00
1461;DHT22;724;49.910;12.530;2023-02-28T08:30:18;-1.40;1.00
1461;DHT22;724;49.910;12.530;2023-02-28T08:32:45;-1.60;1.00
1461;DHT22;724;49.910;12.530;2023-02-28T08:35:12;-1.70;1.00
1461;DHT22;724;49.910;12.530;2023-02-28T08:37:38;-0.60;1.00
1461;DHT22;724;49.910;12.530;2023-02-28T08:40:06;-0.90;1.00
1461;DHT22;724;49.910;12.530;2023-02-28T08:42:35;-1.30;1.00
1461;DHT22;724;49.910;12.530;2023-02-28T08:45:02;-1.60;1.00
1461;DHT22;724;49.910;12.530;2023-02-28T08:47:29;-1.30;1.00
1461;DHT22;724;49.910;12.530;2023-02-28T08:49:56;-0.80;1.00
1461;DHT22;724;49.910;12.530;2023-02-28T08:52:23;-1.50;1.00
1461;DHT22;724;49.910;12.530;2023-02-28T08:54:50;-1.80;1.00
1461;DHT22;724;49.910;12.530;2023-02-28T08:57:16;-1.60;1.00
1461;DHT22;724;49.910;12.530;2023-02-28T08:59:45;-1.50;1.00
1461;DHT22;724;49.910;12.530;2023-02-28T09:02:13;-1.20;1.00
1461;DHT22;724;49.910;12.530;2023-02-28T09:04:40;-1.50;1.00
1461;DHT22;724;49.910;12.530;2023-02-28T09:07:07;-0.90;1.00
1461;DHT22;724;49.910;12.530;2023-02-28T09:09:34;-1.20;1.00
1461;DHT22;724;49.910;12.530;2023-02-28T09:12:00;-1.30;1.00
1461;DHT22;724;49.910;12.530;2023-02-28T09:14:27;-1.00;1.00
1461;DHT22;724;49.910;12.530;2023-02-28T09:16:55;-1.00;1.00
1461;DHT22;724;49.910;12.530;2023-02-28T09:19:22;-0.20;1.00
1461;DHT22;724;49.910;12.530;2023-02-28T09:21:49;-0.10;1.00
1461;DHT22;724;49.910;12.530;2023-02-28T09:24:16;-0.10;1.00
1461;DHT22;724;49.910;12.530;2023-02-28T09:26:43;0.20;1.00
1461;DHT22;724;49.910;12.530;2023-02-28T09:29:10;2.30;1.00
1461;DHT22;724;49.910;12.530;2023-02-28T09:31:37;2.80;1.00
1461;DHT22;724;49.910;12.530;2023-02-28T09:34:05;5.80;1.00
1461;DHT22;724;49.910;12.530;2023-02-28T09:36:32;4.40;1.00
1461;DHT22;724;49.910;12.530;2023-02-28T09:39:00;5.50;99.90
1461;DHT22;724;49.910;12.530;2023-02-28T09:41:29;3.40;99.90
1461;DHT22;724;49.910;12.530;2023-02-28T09:44:02;3.10;99.90
1461;DHT22;724;49.910;12.530;2023-02-28T09:46:33;5.80;99.90
1461;DHT22;724;49.910;12.530;2023-02-28T09:49:02;3.70;99.90
1461;DHT22;724;49.910;12.530;2023-02-28T09:51:40;3.10;99.90
1461;DHT22;724;49.910;12.530;2023-02-28T09:54:14;5.40;99.90
1461;DHT22;724;49.910;12.530;2023-02-28T09:56:44;1.80;99.90
1461;DHT22;724;49.910;12.530;2023-02-28T09:59:19;2.50;99.90
1461;DHT22;724;49.910;12.530;2023-02-28T10:01:56;4.30;99.90
1461;DHT22;724;49.910;12.530;2023-02-28T10:04:36;2.90;99.90
1461;DHT22;724;49.910;12.530;2023-02-28T10:07:17;4.40;99.90
1461;DHT22;724;49.910;12.530;2023-02-28T10:09:47;3.90;99.90
1461;DHT22;724;49.910;12.530;2023-02-28T10:12:18;3.80;99.90
1461;DHT22;724;49.910;12.530;2023-02-28T10:14:49;3.60;99.90
1461;DHT22;724;49.910;12.530;2023-02-28T10:17:19;3.60;99.90
1461;DHT22;724;49.910;12.530;2023-02-28T10:19:54;4.40;99.90
1461;DHT22;724;49.910;12.530;2023-02-28T10:22:27;4.10;99.90
1461;DHT22;724;49.910;12.530;2023-02-28T10:24:55;3.10;99.90
1461;DHT22;724;49.910;12.530;2023-02-28T10:27:30;3.20;99.90
1461;DHT22;724;49.910;12.530;2023-02-28T10:29:58;1.90;99.90
1461;DHT22;724;49.910;12.530;2023-02-28T10:32:27;0.40;99.90
1461;DHT22;724;49.910;12.530;2023-02-28T10:34:57;0.40;99.90
1461;DHT22;724;49.910;12.530;2023-02-28T10:37:27;1.70;99.90
1461;DHT22;724;49.910;12.530;2023-02-28T10:39:54;2.80;99.90
1461;DHT22;724;49.910;12.530;2023-02-28T10:42:25;3.10;99.90
1461;DHT22;724;49.910;12.530;2023-02-28T10:45:09;4.20;99.90
1461;DHT22;724;49.910;12.530;2023-02-28T10:47:41;2.40;99.90
1461;DHT22;724;49.910;12.530;2023-02-28T10:50:27;4.50;99.90
1461;DHT22;724;49.910;12.530;2023-02-28T10:53:07;2.50;99.90
1461;DHT22;724;49.910;12.530;2023-02-28T10:55:35;1.30;99.90
1461;DHT22;724;49.910;12.530;2023-02-28T10:58:03;1.20;99.90
1461;DHT22;724;49.910;12.530;2023-02-28T11:00:40;1.40;99.90
1461;DHT22;724;49.910;12.530;2023-02-28T11:03:24;3.60;99.90
1461;DHT22;724;49.910;12.530;2023-02-28T11:05:51;1.70;99.90
1461;DHT22;724;49.910;12.530;2023-02-28T11:08:19;5.20;99.90
1461;DHT22;724;49.910;12.530;2023-02-28T11:10:48;7.80;99.90
1461;DHT22;724;49.910;12.530;2023-02-28T11:13:17;7.60;99.90
1461;DHT22;724;49.910;12.530;2023-02-28T11:15:51;7.60;99.90
1461;DHT22;724;49.910;12.530;2023-02-28T11:18:28;4.50;99.90
1461;DHT22;724;49.910;12.530;2023-02-28T11:20:58;4.90;99.90
1461;DHT22;724;49.910;12.530;2023-02-28T11:23:30;5.50;99.90
1461;DHT22;724;49.910;12.530;2023-02-28T11:26:00;6.80;99.90
1461;DHT22;724;49.910;12.530;2023-02-28T11:28:29;6.80;99.90
1461;DHT22;724;49.910;12.530;2023-02-28T11:31:04;6.60;99.90
1461;DHT22;724;49.910;12.530;2023-02-28T11:33:39;9.50;99.90
1461;DHT22;724;49.910;12.530;2023-02-28T11:36:10;8.40;99.90
1461;DHT22;724;49.910;12.530;2023-02-28T11:38:39;7.80;99.90
1461;DHT22;724;49.910;12.530;2023-02-28T11:41:20;8.10;99.90
1461;DHT22;724;49.910;12.530;2023-02-28T11:44:04;6.00;99.90
1461;DHT22;724;49.910;12.530;2023-02-28T11:46:37;5.70;99.90
1461;DHT22;724;49.910;12.530;2023-02-28T11:49:21;6.90;99.90
1461;DHT22;724;49.910;12.530;2023-02-28T11:51:54;8.00;99.90
1461;DHT22;724;49.910;12.530;2023-02-28T11:54:56;9.10;99.90
1461;DHT22;724;49.910;12.530;2023-02-28T11:57:44;10.00;99.90
1461;DHT22;724;49.910;12.530;2023-02-28T12:00:35;8.00;97.60
1461;DHT22;724;49.910;12.530;2023-02-28T12:03:15;7.80;91.50
1461;DHT22;724;49.910;12.530;2023-02-28T12:05:45;4.30;30.70
1461;DHT22;724;49.910;12.530;2023-02-28T12:08:26;3.80;49.10
1461;DHT22;724;49.910;12.530;2023-02-28T12:11:04;3.80;61.60
1461;DHT22;724;49.910;12.530;2023-02-28T12:13:41;5.30;94.10
1461;DHT22;724;49.910;12.530;2023-02-28T12:16:40;3.50;49.70
1461;DHT22;724;49.910;12.530;2023-02-28T12:19:16;3.00;56.30
1461;DHT22;724;49.910;12.530;2023-02-28T12:22:03;2.10;41.00
1461;DHT22;724;49.910;12.530;2023-02-28T12:24:52;2.30;51.50
1461;DHT22;724;49.910;12.530;2023-02-28T12:27:25;2.70;59.70
1461;DHT22;724;49.910;12.530;2023-02-28T12:29:56;3.40;76.80
1461;DHT22;724;49.910;12.530;2023-02-28T12:32:27;3.30;79.70
1461;DHT22;724;49.910;12.530;2023-02-28T12:35:00;3.30;80.10
1461;DHT22;724;49.910;12.530;2023-02-28T12:37:32;2.30;53.10
1461;DHT22;724;49.910;12.530;2023-02-28T12:40:03;2.10;52.70
1461;DHT22;724;49.910;12.530;2023-02-28T12:42:38;2.50;72.10
1461;DHT22;724;49.910;12.530;2023-02-28T12:45:10;2.30;77.50
1461;DHT22;724;49.910;12.530;2023-02-28T12:47:42;2.40;75.40
1461;DHT22;724;49.910;12.530;2023-02-28T12:50:11;2.70;85.00
1461;DHT22;724;49.910;12.530;2023-02-28T12:52:47;2.40;76.40
1461;DHT22;724;49.910;12.530;2023-02-28T12:55:21;2.40;74.60
1461;DHT22;724;49.910;12.530;2023-02-28T12:57:58;2.30;78.50
1461;DHT22;724;49.910;12.530;2023-02-28T13:00:34;3.00;92.70
1461;DHT22;724;49.910;12.530;2023-02-28T13:03:31;3.00;92.20
1461;DHT22;724;49.910;12.530;2023-02-28T13:06:16;2.90;92.60
1461;DHT22;724;49.910;12.530;2023-02-28T13:09:05;3.20;93.30
1461;DHT22;724;49.910;12.530;2023-02-28T13:11:39;2.80;86.30
1461;DHT22;724;49.910;12.530;2023-02-28T13:14:23;2.20;74.90
1461;DHT22;724;49.910;12.530;2023-02-28T13:16:55;2.80;94.00
1461;DHT22;724;49.910;12.530;2023-02-28T13:19:25;2.90;92.70
1461;DHT22;724;49.910;12.530;2023-02-28T13:21:52;2.70;90.70
1461;DHT22;724;49.910;12.530;2023-02-28T13:24:45;3.00;93.90
1461;DHT22;724;49.910;12.530;2023-02-28T13:27:37;3.20;96.40
1461;DHT22;724;49.910;12.530;2023-02-28T13:33:26;3.80;98.30
1461;DHT22;724;49.910;12.530;2023-02-28T13:36:25;3.50;93.50
1461;DHT22;724;49.910;12.530;2023-02-28T13:38:52;3.20;90.60
1461;DHT22;724;49.910;12.530;2023-02-28T13:41:43;3.00;83.20
1461;DHT22;724;49.910;12.530;2023-02-28T13:44:11;2.40;80.10
1461;DHT22;724;49.910;12.530;2023-02-28T13:49:52;2.20;69.60
1461;DHT22;724;49.910;12.530;2023-02-28T13:52:22;2.00;75.40
1461;DHT22;724;49.910;12.530;2023-02-28T13:57:44;2.70;92.20
1461;DHT22;724;49.910;12.530;2023-02-28T14:00:22;2.80;91.30
1461;DHT22;724;49.910;12.530;2023-02-28T14:03:05;3.30;99.00
1461;DHT22;724;49.910;12.530;2023-02-28T14:05:36;2.90;89.20
1461;DHT22;724;49.910;12.530;2023-02-28T14:08:06;2.40;76.60
1461;DHT22;724;49.910;12.530;2023-02-28T14:10:42;2.20;77.80
1461;DHT22;724;49.910;12.530;2023-02-28T14:13:43;2.00;70.40
1461;DHT22;724;49.910;12.530;2023-02-28T14:16:13;1.80;69.40
1461;DHT22;724;49.910;12.530;2023-02-28T14:18:43;1.30;60.90
1461;DHT22;724;49.910;12.530;2023-02-28T14:21:21;1.50;75.20
1461;DHT22;724;49.910;12.530;2023-02-28T14:24:33;1.30;74.60
1461;DHT22;724;49.910;12.530;2023-02-28T14:27:34;1.30;81.50
1461;DHT22;724;49.910;12.530;2023-02-28T14:30:37;1.90;97.60
1461;DHT22;724;49.910;12.530;2023-02-28T14:33:22;1.60;88.60
1461;DHT22;724;49.910;12.530;2023-02-28T14:36:02;1.60;91.80
1461;DHT22;724;49.910;12.530;2023-02-28T14:38:35;1.40;87.40
1461;DHT22;724;49.910;12.530;2023-02-28T14:41:11;1.60;95.20
1461;DHT22;724;49.910;12.530;2023-02-28T14:43:48;1.30;87.20
1461;DHT22;724;49.910;12.530;2023-02-28T14:46:17;1.10;83.40
1461;DHT22;724;49.910;12.530;2023-02-28T14:48:45;1.10;90.50
1461;DHT22;724;49.910;12.530;2023-02-28T14:51:18;1.10;91.90
1461;DHT22;724;49.910;12.530;2023-02-28T14:53:50;1.20;92.90
1461;DHT22;724;49.910;12.530;2023-02-28T14:56:23;0.90;90.30
1461;DHT22;724;49.910;12.530;2023-02-28T14:58:55;1.00;93.10
1461;DHT22;724;49.910;12.530;2023-02-28T15:01:24;1.00;92.00
1461;DHT22;724;49.910;12.530;2023-02-28T15:03:59;1.20;94.40
1461;DHT22;724;49.910;12.530;2023-02-28T15:06:27;1.10;96.10
1461;DHT22;724;49.910;12.530;2023-02-28T15:09:17;1.10;95.20
1461;DHT22;724;49.910;12.530;2023-02-28T15:11:47;1.00;94.80
1461;DHT22;724;49.910;12.530;2023-02-28T15:14:17;1.20;97.30
1461;DHT22;724;49.910;12.530;2023-02-28T15:16:47;1.30;97.80
1461;DHT22;724;49.910;12.530;2023-02-28T15:19:20;1.00;95.00
1461;DHT22;724;49.910;12.530;2023-02-28T15:21:50;1.20;99.90
1461;DHT22;724;49.910;12.530;2023-02-28T15:24:21;1.30;99.90
1461;DHT22;724;49.910;12.530;2023-02-28T15:26:54;1.60;99.90
1461;DHT22;724;49.910;12.530;2023-02-28T15:29:22;1.40;99.90
1461;DHT22;724;49.910;12.530;2023-02-28T15:31:52;1.00;95.30
1461;DHT22;724;49.910;12.530;2023-02-28T15:34:26;0.90;95.00
1461;DHT22;724;49.910;12.530;2023-02-28T15:36:55;0.90;96.70
1461;DHT22;724;49.910;12.530;2023-02-28T15:39:25;0.90;98.20
1461;DHT22;724;49.910;12.530;2023-02-28T15:42:09;0.90;97.80
1461;DHT22;724;49.910;12.530;2023-02-28T15:44:37;0.80;96.80
1461;DHT22;724;49.910;12.530;2023-02-28T15:47:05;0.70;95.70
1461;DHT22;724;49.910;12.530;2023-02-28T15:49:39;0.70;99.90
1461;DHT22;724;49.910;12.530;2023-02-28T15:52:09;0.80;99.90
1461;DHT22;724;49.910;12.530;2023-02-28T15:54:41;0.80;99.90
1461;DHT22;724;49.910;12.530;2023-02-28T15:57:13;0.70;99.90
1461;DHT22;724;49.910;12.530;2023-02-28T15:59:49;0.80;99.90
1461;DHT22;724;49.910;12.530;2023-02-28T16:02:19;0.60;99.90
1461;DHT22;724;49.910;12.530;2023-02-28T16:05:02;0.70;99.90
1461;DHT22;724;49.910;12.530;2023-02-28T16:07:40;0.40;99.90
1461;DHT22;724;49.910;12.530;2023-02-28T16:10:11;0.40;99.90
1461;DHT22;724;49.910;12.530;2023-02-28T16:12:40;0.20;99.90
1461;DHT22;724;49.910;12.530;2023-02-28T16:15:09;0.20;99.90
1461;DHT22;724;49.910;12.530;2023-02-28T16:17:42;0.10;99.90
1461;DHT22;724;49.910;12.530;2023-02-28T16:20:13;0.00;99.90
1461;DHT22;724;49.910;12.530;2023-02-28T16:22:40;0.10;99.90
1461;DHT22;724;49.910;12.530;2023-02-28T16:25:11;0.00;99.90
1461;DHT22;724;49.910;12.530;2023-02-28T16:27:38;-0.10;99.90
1461;DHT22;724;49.910;12.530;2023-02-28T16:30:06;-0.20;99.90
1461;DHT22;724;49.910;12.530;2023-02-28T16:32:35;-0.30;99.90
1461;DHT22;724;49.910;12.530;2023-02-28T16:35:02;-0.40;99.90
1461;DHT22;724;49.910;12.530;2023-02-28T16:37:29;-0.40;99.90
1461;DHT22;724;49.910;12.530;2023-02-28T16:39:56;-0.40;99.90
1461;DHT22;724;49.910;12.530;2023-02-28T16:42:26;-0.40;99.90
1461;DHT22;724;49.910;12.530;2023-02-28T16:44:55;-0.50;99.90
1461;DHT22;724;49.910;12.530;2023-02-28T16:47:23;-0.70;99.90
1461;DHT22;724;49.910;12.530;2023-02-28T16:49:52;-0.70;99.90
1461;DHT22;724;49.910;12.530;2023-02-28T16:52:18;-0.70;99.90
1461;DHT22;724;49.910;12.530;2023-02-28T16:54:45;-0.70;99.90
1461;DHT22;724;49.910;12.530;2023-02-28T16:57:18;-0.80;99.90
1461;DHT22;724;49.910;12.530;2023-02-28T16:59:47;-0.90;99.90
1461;DHT22;724;49.910;12.530;2023-02-28T17:02:17;-0.80;99.90